sensor_id;sensor_type;location;lat;lon;timestamp;P1;durP1;ratioP1;P2;durP2;ratioP2
77802;SDS011;66993;48.256;16.422;2024-02-15T00:02:58;8.8;;;4.9;;
77802;SDS011;66993;48.256;16.422;2024-02-15T00:08:00;9.7;;;4.4;;
77802;SDS011;66993;48.256;16.422;2024-02-15T00:13:01;9.1;;;4.8;;
77802;SDS011;66993;48.256;16.422;2024-02-15T00:18:03;9.7;;;5.1;;
77802;SDS011;66993;48.256;16.422;2024-02-15T00:23:04;8.7;;;4.5;;
77802;SDS011;66993;48.256;16.422;2024-02-15T00:28:07;7.9;;;4.8;;
77802;SDS011;66993;48.256;16.422;2024-02-15T00:33:07;10.2;;;4.4;;
77802;SDS011;66993;48.256;16.422;2024-02-15T00:38:08;10.1;;;5.2;;
77802;SDS011;66993;48.256;16.422;2024-02-15T00:43:15;8.5;;;5.0;;
77802;SDS011;66993;48.256;16.422;2024-02-15T00:48:11;9.5;;;5.4;;
77802;SDS011;66993;48.256;16.422;2024-02-15T00:53:12;10.5;;;5.4;;
77802;SDS011;66993;48.256;16.422;2024-02-15T00:58:14;9.4;;;5.0;;
77802;SDS011;66993;48.256;16.422;2024-02-15T01:03:15;8.9;;;5.6;;
77802;SDS011;66993;48.256;16.422;2024-02-15T01:08:18;11.5;;;5.6;;
77802;SDS011;66993;48.256;16.422;2024-02-15T01:13:18;9.9;;;5.1;;
77802;SDS011;66993;48.256;16.422;2024-02-15T01:18:19;11.5;;;6.1;;
77802;SDS011;66993;48.256;16.422;2024-02-15T01:23:21;10.1;;;5.2;;
77802;SDS011;66993;48.256;16.422;2024-02-15T01:28:23;10.8;;;5.9;;
77802;SDS011;66993;48.256;16.422;2024-02-15T01:33:23;9.9;;;5.9;;
77802;SDS011;66993;48.256;16.422;2024-02-15T01:38:26;11.5;;;5.2;;
77802;SDS011;66993;48.256;16.422;2024-02-15T01:43:26;10.1;;;5.9;;
77802;SDS011;66993;48.256;16.422;2024-02-15T01:48:27;11.9;;;5.5;;
77802;SDS011;66993;48.256;16.422;2024-02-15T01:53:29;9.5;;;5.9;;
77802;SDS011;66993;48.256;16.422;2024-02-15T01:58:30;10.5;;;6.1;;
77802;SDS011;66993;48.256;16.422;2024-02-15T02:03:32;12.1;;;5.7;;
77802;SDS011;66993;48.256;16.422;2024-02-15T02:08:33;11.8;;;6.5;;
77802;SDS011;66993;48.256;16.422;2024-02-15T02:13:35;11.2;;;5.8;;
77802;SDS011;66993;48.256;16.422;2024-02-15T02:18:36;12.7;;;6.9;;
77802;SDS011;66993;48.256;16.422;2024-02-15T02:23:37;10.0;;;5.3;;
77802;SDS011;66993;48.256;16.422;2024-02-15T02:28:41;11.3;;;5.7;;
77802;SDS011;66993;48.256;16.422;2024-02-15T02:33:40;12.6;;;6.2;;
77802;SDS011;66993;48.256;16.422;2024-02-15T02:38:41;10.5;;;5.4;;
77802;SDS011;66993;48.256;16.422;2024-02-15T02:43:42;10.2;;;6.2;;
77802;SDS011;66993;48.256;16.422;2024-02-15T02:48:44;10.9;;;6.4;;
77802;SDS011;66993;48.256;16.422;2024-02-15T02:53:45;11.5;;;6.1;;
77802;SDS011;66993;48.256;16.422;2024-02-15T02:58:47;11.9;;;6.3;;
77802;SDS011;66993;48.256;16.422;2024-02-15T03:03:48;10.2;;;5.9;;
77802;SDS011;66993;48.256;16.422;2024-02-15T03:08:49;12.0;;;6.8;;
77802;SDS011;66993;48.256;16.422;2024-02-15T03:13:51;11.6;;;6.2;;
77802;SDS011;66993;48.256;16.422;2024-02-15T03:18:54;11.0;;;6.2;;
77802;SDS011;66993;48.256;16.422;2024-02-15T03:23:58;12.3;;;6.4;;
77802;SDS011;66993;48.256;16.422;2024-02-15T03:28:57;11.2;;;5.7;;
77802;SDS011;66993;48.256;16.422;2024-02-15T03:33:56;11.2;;;7.0;;
77802;SDS011;66993;48.256;16.422;2024-02-15T03:38:58;11.3;;;6.1;;
77802;SDS011;66993;48.256;16.422;2024-02-15T03:43:59;11.1;;;6.2;;
77802;SDS011;66993;48.256;16.422;2024-02-15T03:49:01;10.4;;;6.5;;
77802;SDS011;66993;48.256;16.422;2024-02-15T03:54:02;9.7;;;5.6;;
77802;SDS011;66993;48.256;16.422;2024-02-15T03:59:04;11.3;;;6.9;;
77802;SDS011;66993;48.256;16.422;2024-02-15T04:04:04;11.9;;;6.8;;
77802;SDS011;66993;48.256;16.422;2024-02-15T04:09:06;9.9;;;5.4;;
77802;SDS011;66993;48.256;16.422;2024-02-15T04:14:07;11.4;;;6.6;;
77802;SDS011;66993;48.256;16.422;2024-02-15T04:19:08;9.3;;;5.8;;
77802;SDS011;66993;48.256;16.422;2024-02-15T04:24:10;12.4;;;7.1;;
77802;SDS011;66993;48.256;16.422;2024-02-15T04:29:12;9.9;;;6.6;;
77802;SDS011;66993;48.256;16.422;2024-02-15T04:34:12;11.6;;;6.7;;
77802;SDS011;66993;48.256;16.422;2024-02-15T04:39:15;11.3;;;6.0;;
77802;SDS011;66993;48.256;16.422;2024-02-15T04:44:15;14.7;;;5.9;;
77802;SDS011;66993;48.256;16.422;2024-02-15T04:49:17;11.7;;;6.5;;
77802;SDS011;66993;48.256;16.422;2024-02-15T04:54:18;9.6;;;6.2;;
77802;SDS011;66993;48.256;16.422;2024-02-15T04:59:19;11.5;;;6.9;;
77802;SDS011;66993;48.256;16.422;2024-02-15T05:04:20;16.1;;;6.6;;
77802;SDS011;66993;48.256;16.422;2024-02-15T05:09:22;14.1;;;6.5;;
77802;SDS011;66993;48.256;16.422;2024-02-15T05:14:23;11.4;;;7.3;;
77802;SDS011;66993;48.256;16.422;2024-02-15T05:19:26;12.7;;;6.1;;
77802;SDS011;66993;48.256;16.422;2024-02-15T05:24:26;12.0;;;6.8;;
77802;SDS011;66993;48.256;16.422;2024-02-15T05:29:27;10.6;;;6.7;;
77802;SDS011;66993;48.256;16.422;2024-02-15T05:34:29;10.1;;;6.0;;
77802;SDS011;66993;48.256;16.422;2024-02-15T05:39:30;12.7;;;7.6;;
77802;SDS011;66993;48.256;16.422;2024-02-15T05:44:31;12.1;;;6.7;;
77802;SDS011;66993;48.256;16.422;2024-02-15T05:49:33;13.6;;;7.4;;
77802;SDS011;66993;48.256;16.422;2024-02-15T05:54:34;14.7;;;7.9;;
77802;SDS011;66993;48.256;16.422;2024-02-15T05:59:36;14.1;;;8.0;;
77802;SDS011;66993;48.256;16.422;2024-02-15T06:04:36;17.9;;;9.8;;
77802;SDS011;66993;48.256;16.422;2024-02-15T06:09:38;15.9;;;8.6;;
77802;SDS011;66993;48.256;16.422;2024-02-15T06:14:39;15.5;;;9.3;;
77802;SDS011;66993;48.256;16.422;2024-02-15T06:19:41;14.5;;;8.9;;
77802;SDS011;66993;48.256;16.422;2024-02-15T06:24:42;16.8;;;9.0;;
77802;SDS011;66993;48.256;16.422;2024-02-15T06:29:43;15.9;;;10.0;;
77802;SDS011;66993;48.256;16.422;2024-02-15T06:34:44;17.4;;;9.5;;
77802;SDS011;66993;48.256;16.422;2024-02-15T06:39:46;22.7;;;11.2;;
77802;SDS011;66993;48.256;16.422;2024-02-15T06:44:48;17.1;;;10.5;;
77802;SDS011;66993;48.256;16.422;2024-02-15T06:49:49;16.4;;;9.4;;
77802;SDS011;66993;48.256;16.422;2024-02-15T06:54:50;16.6;;;9.2;;
77802;SDS011;66993;48.256;16.422;2024-02-15T06:59:51;18.0;;;9.9;;
77802;SDS011;66993;48.256;16.422;2024-02-15T07:04:53;23.7;;;10.3;;
77802;SDS011;66993;48.256;16.422;2024-02-15T07:09:54;20.6;;;10.0;;
77802;SDS011;66993;48.256;16.422;2024-02-15T07:14:55;20.2;;;10.7;;
77802;SDS011;66993;48.256;16.422;2024-02-15T07:19:57;19.0;;;10.3;;
77802;SDS011;66993;48.256;16.422;2024-02-15T07:24:58;21.4;;;10.9;;
77802;SDS011;66993;48.256;16.422;2024-02-15T07:30:00;18.4;;;9.5;;
77802;SDS011;66993;48.256;16.422;2024-02-15T07:35:00;21.1;;;11.5;;
77802;SDS011;66993;48.256;16.422;2024-02-15T07:40:03;20.1;;;10.3;;
77802;SDS011;66993;48.256;16.422;2024-02-15T07:45:03;21.5;;;11.6;;
77802;SDS011;66993;48.256;16.422;2024-02-15T07:50:05;20.5;;;10.9;;
77802;SDS011;66993;48.256;16.422;2024-02-15T07:55:06;20.9;;;11.5;;
77802;SDS011;66993;48.256;16.422;2024-02-15T08:00:08;20.0;;;11.0;;
77802;SDS011;66993;48.256;16.422;2024-02-15T08:05:09;21.4;;;11.0;;
77802;SDS011;66993;48.256;16.422;2024-02-15T08:10:10;20.8;;;12.0;;
77802;SDS011;66993;48.256;16.422;2024-02-15T08:15:12;20.8;;;10.7;;
77802;SDS011;66993;48.256;16.422;2024-02-15T08:20:13;18.5;;;10.6;;
77802;SDS011;66993;48.256;16.422;2024-02-15T08:25:14;18.9;;;10.3;;
77802;SDS011;66993;48.256;16.422;2024-02-15T08:30:18;19.7;;;10.6;;
77802;SDS011;66993;48.256;16.422;2024-02-15T08:35:17;18.6;;;11.1;;
77802;SDS011;66993;48.256;16.422;2024-02-15T08:40:18;17.1;;;10.1;;
77802;SDS011;66993;48.256;16.422;2024-02-15T08:45:20;21.3;;;11.2;;
77802;SDS011;66993;48.256;16.422;2024-02-15T08:50:21;20.3;;;11.5;;
77802;SDS011;66993;48.256;16.422;2024-02-15T08:55:22;20.2;;;11.9;;
77802;SDS011;66993;48.256;16.422;2024-02-15T09:00:24;18.3;;;11.7;;
77802;SDS011;66993;48.256;16.422;2024-02-15T09:05:25;16.8;;;10.7;;
77802;SDS011;66993;48.256;16.422;2024-02-15T09:10:27;14.9;;;10.0;;
77802;SDS011;66993;48.256;16.422;2024-02-15T09:15:28;17.2;;;10.4;;
77802;SDS011;66993;48.256;16.422;2024-02-15T09:20:29;14.1;;;9.5;;
77802;SDS011;66993;48.256;16.422;2024-02-15T09:25:31;17.5;;;10.4;;
77802;SDS011;66993;48.256;16.422;2024-02-15T09:30:32;16.0;;;10.0;;
77802;SDS011;66993;48.256;16.422;2024-02-15T09:35:33;16.7;;;9.6;;
77802;SDS011;66993;48.256;16.422;2024-02-15T09:40:35;16.0;;;10.5;;
77802;SDS011;66993;48.256;16.422;2024-02-15T09:45:36;16.7;;;10.0;;
77802;SDS011;66993;48.256;16.422;2024-02-15T09:50:38;17.6;;;11.6;;
77802;SDS011;66993;48.256;16.422;2024-02-15T09:55:39;23.1;;;13.4;;
77802;SDS011;66993;48.256;16.422;2024-02-15T10:00:41;25.3;;;14.2;;
77802;SDS011;66993;48.256;16.422;2024-02-15T10:05:42;17.7;;;11.9;;
77802;SDS011;66993;48.256;16.422;2024-02-15T10:10:43;17.6;;;11.1;;
77802;SDS011;66993;48.256;16.422;2024-02-15T10:15:44;22.1;;;12.8;;
77802;SDS011;66993;48.256;16.422;2024-02-15T10:20:57;17.9;;;10.8;;
77802;SDS011;66993;48.256;16.422;2024-02-15T10:25:47;19.2;;;10.2;;
77802;SDS011;66993;48.256;16.422;2024-02-15T10:30:48;15.5;;;10.5;;
77802;SDS011;66993;48.256;16.422;2024-02-15T10:35:50;13.2;;;7.6;;
77802;SDS011;66993;48.256;16.422;2024-02-15T10:40:53;11.2;;;8.1;;
77802;SDS011;66993;48.256;16.422;2024-02-15T10:45:52;10.2;;;6.7;;
77802;SDS011;66993;48.256;16.422;2024-02-15T10:50:54;9.3;;;5.9;;
77802;SDS011;66993;48.256;16.422;2024-02-15T10:55:57;11.1;;;6.4;;
77802;SDS011;66993;48.256;16.422;2024-02-15T11:00:57;8.9;;;5.4;;
77802;SDS011;66993;48.256;16.422;2024-02-15T11:05:58;9.2;;;6.0;;
77802;SDS011;66993;48.256;16.422;2024-02-15T11:10:59;10.8;;;6.3;;
77802;SDS011;66993;48.256;16.422;2024-02-15T11:16:01;10.2;;;5.5;;
77802;SDS011;66993;48.256;16.422;2024-02-15T11:21:02;9.2;;;5.1;;
77802;SDS011;66993;48.256;16.422;2024-02-15T11:26:04;5.7;;;2.6;;
77802;SDS011;66993;48.256;16.422;2024-02-15T11:31:07;5.0;;;2.8;;
77802;SDS011;66993;48.256;16.422;2024-02-15T11:36:07;5.1;;;3.0;;
77802;SDS011;66993;48.256;16.422;2024-02-15T11:41:07;4.8;;;2.8;;
77802;SDS011;66993;48.256;16.422;2024-02-15T11:46:09;9.5;;;5.7;;
77802;SDS011;66993;48.256;16.422;2024-02-15T11:51:10;9.4;;;5.6;;
77802;SDS011;66993;48.256;16.422;2024-02-15T11:56:11;10.3;;;6.7;;
77802;SDS011;66993;48.256;16.422;2024-02-15T12:01:13;9.7;;;6.5;;
77802;SDS011;66993;48.256;16.422;2024-02-15T12:06:16;10.5;;;6.8;;
77802;SDS011;66993;48.256;16.422;2024-02-15T12:11:17;10.3;;;6.6;;
77802;SDS011;66993;48.256;16.422;2024-02-15T12:16:17;11.6;;;6.5;;
77802;SDS011;66993;48.256;16.422;2024-02-15T12:21:19;12.1;;;8.9;;
77802;SDS011;66993;48.256;16.422;2024-02-15T12:26:20;18.7;;;10.8;;
77802;SDS011;66993;48.256;16.422;2024-02-15T12:31:21;14.8;;;9.6;;
77802;SDS011;66993;48.256;16.422;2024-02-15T12:36:22;16.2;;;10.3;;
77802;SDS011;66993;48.256;16.422;2024-02-15T12:41:24;12.3;;;8.3;;
77802;SDS011;66993;48.256;16.422;2024-02-15T12:46:25;14.1;;;9.6;;
77802;SDS011;66993;48.256;16.422;2024-02-15T12:51:27;15.2;;;9.5;;
77802;SDS011;66993;48.256;16.422;2024-02-15T12:56:28;16.7;;;9.8;;
77802;SDS011;66993;48.256;16.422;2024-02-15T13:01:29;13.1;;;8.6;;
77802;SDS011;66993;48.256;16.422;2024-02-15T13:06:30;14.3;;;9.4;;
77802;SDS011;66993;48.256;16.422;2024-02-15T13:11:32;16.4;;;11.2;;
77802;SDS011;66993;48.256;16.422;2024-02-15T13:16:33;11.6;;;7.7;;
77802;SDS011;66993;48.256;16.422;2024-02-15T13:21:36;12.7;;;7.9;;
77802;SDS011;66993;48.256;16.422;2024-02-15T13:26:36;11.1;;;7.4;;
77802;SDS011;66993;48.256;16.422;2024-02-15T13:31:37;10.4;;;5.8;;
77802;SDS011;66993;48.256;16.422;2024-02-15T13:36:38;10.1;;;6.1;;
77802;SDS011;66993;48.256;16.422;2024-02-15T13:41:40;9.9;;;5.6;;
77802;SDS011;66993;48.256;16.422;2024-02-15T13:46:41;10.0;;;5.6;;
77802;SDS011;66993;48.256;16.422;2024-02-15T13:51:43;9.8;;;5.8;;
77802;SDS011;66993;48.256;16.422;2024-02-15T13:56:44;11.6;;;5.3;;
77802;SDS011;66993;48.256;16.422;2024-02-15T14:01:45;11.7;;;8.0;;
77802;SDS011;66993;48.256;16.422;2024-02-15T14:06:47;12.2;;;7.9;;
77802;SDS011;66993;48.256;16.422;2024-02-15T14:11:48;11.8;;;8.3;;
77802;SDS011;66993;48.256;16.422;2024-02-15T14:16:49;15.4;;;9.2;;
77802;SDS011;66993;48.256;16.422;2024-02-15T14:21:51;15.3;;;9.0;;
77802;SDS011;66993;48.256;16.422;2024-02-15T14:26:52;17.2;;;11.1;;
77802;SDS011;66993;48.256;16.422;2024-02-15T14:31:57;16.7;;;10.0;;
77802;SDS011;66993;48.256;16.422;2024-02-15T14:36:55;17.3;;;10.4;;
77802;SDS011;66993;48.256;16.422;2024-02-15T14:41:56;16.2;;;10.2;;
77802;SDS011;66993;48.256;16.422;2024-02-15T14:46:58;17.3;;;10.6;;
77802;SDS011;66993;48.256;16.422;2024-02-15T14:52:01;18.3;;;11.6;;
77802;SDS011;66993;48.256;16.422;2024-02-15T14:57:00;20.8;;;12.6;;
77802;SDS011;66993;48.256;16.422;2024-02-15T15:02:02;22.5;;;13.0;;
77802;SDS011;66993;48.256;16.422;2024-02-15T15:07:03;19.8;;;12.5;;
77802;SDS011;66993;48.256;16.422;2024-02-15T15:12:05;23.9;;;14.2;;
77802;SDS011;66993;48.256;16.422;2024-02-15T15:17:06;23.9;;;15.6;;
77802;SDS011;66993;48.256;16.422;2024-02-15T15:22:08;20.8;;;13.6;;
77802;SDS011;66993;48.256;16.422;2024-02-15T15:27:09;23.2;;;15.1;;
77802;SDS011;66993;48.256;16.422;2024-02-15T15:32:10;25.4;;;16.3;;
77802;SDS011;66993;48.256;16.422;2024-02-15T15:37:11;22.8;;;15.2;;
77802;SDS011;66993;48.256;16.422;2024-02-15T15:42:13;27.7;;;16.5;;
77802;SDS011;66993;48.256;16.422;2024-02-15T15:47:14;26.1;;;16.6;;
77802;SDS011;66993;48.256;16.422;2024-02-15T15:52:18;25.2;;;16.7;;
77802;SDS011;66993;48.256;16.422;2024-02-15T15:57:17;26.3;;;17.4;;
77802;SDS011;66993;48.256;16.422;2024-02-15T16:02:20;28.3;;;18.6;;
77802;SDS011;66993;48.256;16.422;2024-02-15T16:07:19;25.7;;;17.4;;
77802;SDS011;66993;48.256;16.422;2024-02-15T16:12:21;26.9;;;16.4;;
77802;SDS011;66993;48.256;16.422;2024-02-15T16:17:22;26.8;;;16.8;;
77802;SDS011;66993;48.256;16.422;2024-02-15T16:22:29;28.1;;;17.2;;
77802;SDS011;66993;48.256;16.422;2024-02-15T16:27:25;27.4;;;17.3;;
77802;SDS011;66993;48.256;16.422;2024-02-15T16:32:26;29.6;;;17.9;;
77802;SDS011;66993;48.256;16.422;2024-02-15T16:37:28;28.6;;;17.9;;
77802;SDS011;66993;48.256;16.422;2024-02-15T16:42:29;30.2;;;17.4;;
77802;SDS011;66993;48.256;16.422;2024-02-15T16:47:32;30.0;;;18.3;;
77802;SDS011;66993;48.256;16.422;2024-02-15T16:52:32;30.9;;;17.4;;
77802;SDS011;66993;48.256;16.422;2024-02-15T16:57:34;31.8;;;20.2;;
77802;SDS011;66993;48.256;16.422;2024-02-15T17:02:34;31.9;;;20.1;;
77802;SDS011;66993;48.256;16.422;2024-02-15T17:07:37;36.2;;;21.1;;
77802;SDS011;66993;48.256;16.422;2024-02-15T17:12:37;31.6;;;22.0;;
77802;SDS011;66993;48.256;16.422;2024-02-15T17:17:39;34.0;;;21.5;;
77802;SDS011;66993;48.256;16.422;2024-02-15T17:22:40;37.2;;;23.6;;
77802;SDS011;66993;48.256;16.422;2024-02-15T17:27:41;36.6;;;22.2;;
77802;SDS011;66993;48.256;16.422;2024-02-15T17:32:43;34.0;;;22.0;;
77802;SDS011;66993;48.256;16.422;2024-02-15T17:37:44;36.8;;;22.9;;
77802;SDS011;66993;48.256;16.422;2024-02-15T17:42:46;32.3;;;21.2;;
77802;SDS011;66993;48.256;16.422;2024-02-15T17:47:47;35.7;;;22.7;;
77802;SDS011;66993;48.256;16.422;2024-02-15T17:52:48;36.7;;;23.0;;
77802;SDS011;66993;48.256;16.422;2024-02-15T17:57:50;35.7;;;21.9;;
77802;SDS011;66993;48.256;16.422;2024-02-15T18:02:51;35.6;;;24.0;;
77802;SDS011;66993;48.256;16.422;2024-02-15T18:07:53;35.2;;;21.7;;
77802;SDS011;66993;48.256;16.422;2024-02-15T18:12:54;34.6;;;22.9;;
77802;SDS011;66993;48.256;16.422;2024-02-15T18:17:55;32.4;;;21.3;;
77802;SDS011;66993;48.256;16.422;2024-02-15T18:22:56;34.0;;;20.5;;
77802;SDS011;66993;48.256;16.422;2024-02-15T18:27:58;39.9;;;24.3;;
77802;SDS011;66993;48.256;16.422;2024-02-15T18:32:59;35.1;;;21.3;;
77802;SDS011;66993;48.256;16.422;2024-02-15T18:38:01;34.3;;;22.2;;
77802;SDS011;66993;48.256;16.422;2024-02-15T18:43:02;39.8;;;24.2;;
77802;SDS011;66993;48.256;16.422;2024-02-15T18:48:06;34.1;;;21.4;;
77802;SDS011;66993;48.256;16.422;2024-02-15T18:53:05;35.8;;;22.7;;
77802;SDS011;66993;48.256;16.422;2024-02-15T18:58:06;34.5;;;21.7;;
77802;SDS011;66993;48.256;16.422;2024-02-15T19:03:08;38.0;;;23.4;;
77802;SDS011;66993;48.256;16.422;2024-02-15T19:08:09;41.8;;;24.7;;
77802;SDS011;66993;48.256;16.422;2024-02-15T19:13:10;45.2;;;25.4;;
77802;SDS011;66993;48.256;16.422;2024-02-15T19:18:12;47.3;;;28.1;;
77802;SDS011;66993;48.256;16.422;2024-02-15T19:23:13;49.6;;;27.8;;
77802;SDS011;66993;48.256;16.422;2024-02-15T19:28:15;55.8;;;30.9;;
77802;SDS011;66993;48.256;16.422;2024-02-15T19:33:16;55.1;;;30.5;;
77802;SDS011;66993;48.256;16.422;2024-02-15T19:38:17;48.1;;;26.8;;
77802;SDS011;66993;48.256;16.422;2024-02-15T19:43:19;44.4;;;26.0;;
77802;SDS011;66993;48.256;16.422;2024-02-15T19:48:20;44.5;;;25.8;;
77802;SDS011;66993;48.256;16.422;2024-02-15T19:53:21;54.2;;;30.5;;
77802;SDS011;66993;48.256;16.422;2024-02-15T19:58:23;53.3;;;28.9;;
77802;SDS011;66993;48.256;16.422;2024-02-15T20:03:24;60.6;;;31.6;;
77802;SDS011;66993;48.256;16.422;2024-02-15T20:08:26;49.7;;;27.9;;
77802;SDS011;66993;48.256;16.422;2024-02-15T20:13:27;69.8;;;34.0;;
77802;SDS011;66993;48.256;16.422;2024-02-15T20:18:28;60.4;;;32.2;;
77802;SDS011;66993;48.256;16.422;2024-02-15T20:23:30;54.1;;;28.9;;
77802;SDS011;66993;48.256;16.422;2024-02-15T20:28:31;54.9;;;29.9;;
77802;SDS011;66993;48.256;16.422;2024-02-15T20:33:33;60.5;;;31.7;;
77802;SDS011;66993;48.256;16.422;2024-02-15T20:38:34;49.2;;;26.9;;
77802;SDS011;66993;48.256;16.422;2024-02-15T20:43:35;63.8;;;32.6;;
77802;SDS011;66993;48.256;16.422;2024-02-15T20:48:37;51.0;;;28.4;;
77802;SDS011;66993;48.256;16.422;2024-02-15T20:53:38;60.7;;;30.6;;
77802;SDS011;66993;48.256;16.422;2024-02-15T20:58:40;47.5;;;25.9;;
77802;SDS011;66993;48.256;16.422;2024-02-15T21:03:41;60.0;;;28.3;;
77802;SDS011;66993;48.256;16.422;2024-02-15T21:08:42;58.5;;;29.3;;
77802;SDS011;66993;48.256;16.422;2024-02-15T21:13:44;74.0;;;33.9;;
77802;SDS011;66993;48.256;16.422;2024-02-15T21:18:47;56.7;;;27.4;;
77802;SDS011;66993;48.256;16.422;2024-02-15T21:23:46;58.4;;;29.9;;
77802;SDS011;66993;48.256;16.422;2024-02-15T21:28:48;50.8;;;26.3;;
77802;SDS011;66993;48.256;16.422;2024-02-15T21:33:49;47.3;;;25.8;;
77802;SDS011;66993;48.256;16.422;2024-02-15T21:38:51;61.6;;;29.8;;
77802;SDS011;66993;48.256;16.422;2024-02-15T21:43:52;47.7;;;24.7;;
77802;SDS011;66993;48.256;16.422;2024-02-15T21:48:54;45.5;;;24.7;;
77802;SDS011;66993;48.256;16.422;2024-02-15T21:53:55;51.7;;;25.4;;
77802;SDS011;66993;48.256;16.422;2024-02-15T21:58:57;52.3;;;28.3;;
77802;SDS011;66993;48.256;16.422;2024-02-15T22:03:58;59.7;;;27.7;;
77802;SDS011;66993;48.256;16.422;2024-02-15T22:08:59;54.5;;;26.6;;
77802;SDS011;66993;48.256;16.422;2024-02-15T22:14:01;54.0;;;27.4;;
77802;SDS011;66993;48.256;16.422;2024-02-15T22:19:02;45.8;;;23.5;;
77802;SDS011;66993;48.256;16.422;2024-02-15T22:24:04;49.0;;;27.3;;
77802;SDS011;66993;48.256;16.422;2024-02-15T22:29:05;60.8;;;29.2;;
77802;SDS011;66993;48.256;16.422;2024-02-15T22:34:06;56.2;;;26.4;;
77802;SDS011;66993;48.256;16.422;2024-02-15T22:39:08;52.9;;;25.8;;
77802;SDS011;66993;48.256;16.422;2024-02-15T22:44:09;60.6;;;28.0;;
77802;SDS011;66993;48.256;16.422;2024-02-15T22:49:10;68.5;;;33.1;;
77802;SDS011;66993;48.256;16.422;2024-02-15T22:54:17;69.5;;;31.0;;
77802;SDS011;66993;48.256;16.422;2024-02-15T22:59:15;55.7;;;27.1;;
77802;SDS011;66993;48.256;16.422;2024-02-15T23:04:14;52.5;;;27.1;;
77802;SDS011;66993;48.256;16.422;2024-02-15T23:09:16;51.5;;;26.0;;
77802;SDS011;66993;48.256;16.422;2024-02-15T23:14:17;61.4;;;29.9;;
77802;SDS011;66993;48.256;16.422;2024-02-15T23:19:19;57.1;;;28.8;;
77802;SDS011;66993;48.256;16.422;2024-02-15T23:24:20;63.0;;;29.9;;
77802;SDS011;66993;48.256;16.422;2024-02-15T23:29:21;69.9;;;32.2;;
77802;SDS011;66993;48.256;16.422;2024-02-15T23:34:23;64.1;;;29.2;;
77802;SDS011;66993;48.256;16.422;2024-02-15T23:39:24;61.9;;;30.1;;
77802;SDS011;66993;48.256;16.422;2024-02-15T23:44:28;67.3;;;31.7;;
77802;SDS011;66993;48.256;16.422;2024-02-15T23:49:27;53.7;;;26.9;;
77802;SDS011;66993;48.256;16.422;2024-02-15T23:54:28;55.9;;;28.1;;
77802;SDS011;66993;48.256;16.422;2024-02-15T23:59:30;64.7;;;29.8;;
